Airport View

Enter AWOS ICAO identifier for current METAR.

ex. KFNL

KTEX 212315Z AUTO 27014G20KT 220V290 10SM OVC120 16/M11 A3019 RMK AO2

21 Sep 2019 23:27

Frequency: 118.325

Phone: 970-728-1534

Other Area AWOS: KMTJ - KAIB - KDRO - KAJZ

TAF AMD KTEX 212017Z 2120/2218 14011G16KT P6SM BKN100 FM212100 24010G18KT P6SM SCT100 SCT250 FM220200 13005KT P6SM SCT200 FM221500 VRB03KT P6SM SKC